createdAt,value
2019-05-23T00:00:29.888Z,9.89
2019-05-23T00:01:30.113Z,9.91
2019-05-23T00:02:30.290Z,9.80
2019-05-23T00:03:30.511Z,9.89
2019-05-23T00:04:30.726Z,9.77
2019-05-23T00:05:30.895Z,9.80
2019-05-23T00:06:31.114Z,9.74
2019-05-23T00:07:31.297Z,9.75
2019-05-23T00:08:31.479Z,9.75
2019-05-23T00:09:31.672Z,9.62
2019-05-23T00:10:31.849Z,9.71
2019-05-23T00:11:32.039Z,9.55
2019-05-23T00:12:32.248Z,9.58
2019-05-23T00:13:32.426Z,9.60
2019-05-23T00:14:32.591Z,9.56
2019-05-23T00:15:32.740Z,9.52
2019-05-23T00:16:32.915Z,9.50
2019-05-23T00:17:33.096Z,9.45
2019-05-23T00:18:33.261Z,9.45
2019-05-23T00:19:33.483Z,9.37
2019-05-23T00:20:33.665Z,9.41
2019-05-23T00:21:33.810Z,9.35
2019-05-23T00:22:34.019Z,9.30
2019-05-23T00:23:34.196Z,9.35
2019-05-23T00:24:34.369Z,9.34
2019-05-23T00:25:35.443Z,9.26
2019-05-23T00:26:35.451Z,9.27
2019-05-23T00:27:34.901Z,9.26
2019-05-23T00:28:35.087Z,9.26
2019-05-23T00:29:35.948Z,9.24
2019-05-23T00:30:35.454Z,9.31
2019-05-23T00:31:35.638Z,9.34
2019-05-23T00:32:35.792Z,9.34
2019-05-23T00:33:35.954Z,9.34
2019-05-23T00:34:36.967Z,9.52
2019-05-23T00:35:36.214Z,9.42
2019-05-23T00:36:36.982Z,9.50
2019-05-23T00:37:36.493Z,9.59
2019-05-23T00:38:36.716Z,9.56
2019-05-23T00:39:36.948Z,9.56
2019-05-23T00:40:37.092Z,9.52
2019-05-23T00:41:37.256Z,9.44
2019-05-23T00:42:37.422Z,9.38
2019-05-23T00:43:37.573Z,9.38
2019-05-23T00:44:37.732Z,9.35
2019-05-23T00:45:37.897Z,9.31
2019-05-23T00:46:38.064Z,9.27
2019-05-23T00:47:39.219Z,9.23
2019-05-23T00:48:38.359Z,9.17
2019-05-23T00:49:38.535Z,9.20
2019-05-23T00:50:38.715Z,9.08
2019-05-23T00:51:38.948Z,9.03
2019-05-23T00:52:39.116Z,9.04
2019-05-23T00:53:39.976Z,8.97
2019-05-23T00:54:39.533Z,8.94
2019-05-23T00:55:39.729Z,8.89
2019-05-23T00:56:39.929Z,8.86
2019-05-23T00:57:40.058Z,8.93
2019-05-23T00:58:40.228Z,8.85
2019-05-23T00:59:40.941Z,8.78
2019-05-23T01:00:40.569Z,8.73
2019-05-23T01:01:40.746Z,8.79
2019-05-23T01:02:41.457Z,8.73
2019-05-23T01:03:41.105Z,8.79
2019-05-23T01:04:41.945Z,8.83
2019-05-23T01:05:41.518Z,8.96
2019-05-23T01:06:41.965Z,8.80
2019-05-23T01:07:41.860Z,8.85
2019-05-23T01:08:42.948Z,8.80
2019-05-23T01:09:43.959Z,8.78
2019-05-23T01:10:42.480Z,8.73
2019-05-23T01:11:42.660Z,8.71
2019-05-23T01:12:42.835Z,8.68
2019-05-23T01:13:42.999Z,8.63
2019-05-23T01:14:43.191Z,8.58
2019-05-23T01:15:43.366Z,8.50
2019-05-23T01:16:44.455Z,8.43
2019-05-23T01:17:43.708Z,8.46
2019-05-23T01:18:43.877Z,8.54
2019-05-23T01:19:44.043Z,8.46
2019-05-23T01:20:44.203Z,8.47
2019-05-23T01:21:44.348Z,8.47
2019-05-23T01:22:44.511Z,8.47
2019-05-23T01:23:44.759Z,8.42
2019-05-23T01:24:44.815Z,8.37
2019-05-23T01:25:45.019Z,8.34
2019-05-23T01:26:45.200Z,8.46
2019-05-23T01:27:45.391Z,8.29
2019-05-23T01:28:46.488Z,8.37
2019-05-23T01:29:49.635Z,8.36
2019-05-23T01:30:47.002Z,8.28
2019-05-23T01:31:46.157Z,8.20
2019-05-23T01:32:46.371Z,8.27
2019-05-23T01:33:46.546Z,8.28
2019-05-23T01:34:46.708Z,8.20
2019-05-23T01:35:46.892Z,8.17
2019-05-23T01:36:47.094Z,8.20
2019-05-23T01:37:47.272Z,8.24
2019-05-23T01:38:48.461Z,8.29
2019-05-23T01:39:47.589Z,8.14
2019-05-23T01:40:47.737Z,8.17
2019-05-23T01:41:47.967Z,8.21
2019-05-23T01:42:48.120Z,8.21
2019-05-23T01:43:48.293Z,8.28
2019-05-23T01:44:48.445Z,8.24
2019-05-23T01:45:48.605Z,8.29
2019-05-23T01:46:48.778Z,8.37
2019-05-23T01:47:48.963Z,8.39
2019-05-23T01:48:49.465Z,8.39
2019-05-23T01:49:49.364Z,8.36
2019-05-23T01:50:49.558Z,8.40
2019-05-23T01:51:49.743Z,8.29
2019-05-23T01:52:49.895Z,8.40
2019-05-23T01:53:50.060Z,8.40
2019-05-23T01:54:50.256Z,8.47
2019-05-23T01:55:50.407Z,8.32
2019-05-23T01:56:50.572Z,8.37
2019-05-23T01:57:50.736Z,8.34
2019-05-23T01:58:50.887Z,8.17
2019-05-23T02:00:07.836Z,8.12
2019-05-23T02:00:53.951Z,8.06
2019-05-23T02:01:51.481Z,8.06
2019-05-23T02:02:51.521Z,8.04
2019-05-23T02:03:51.692Z,8.18
2019-05-23T02:04:51.887Z,8.09
2019-05-23T02:05:52.047Z,8.18
2019-05-23T02:06:52.959Z,8.17
2019-05-23T02:07:52.439Z,8.21
2019-05-23T02:08:52.590Z,8.31
2019-05-23T02:09:52.777Z,8.31
2019-05-23T02:10:52.920Z,8.49
2019-05-23T02:11:53.965Z,8.39
2019-05-23T02:12:53.262Z,8.70
2019-05-23T02:13:53.411Z,8.64
2019-05-23T02:14:53.590Z,8.63
2019-05-23T02:15:53.749Z,8.70
2019-05-23T02:16:53.871Z,8.73
2019-05-23T02:17:54.063Z,8.82
2019-05-23T02:18:54.963Z,8.71
2019-05-23T02:19:54.434Z,8.64
2019-05-23T02:20:55.450Z,8.68
2019-05-23T02:21:56.447Z,8.55
2019-05-23T02:22:55.465Z,8.52
2019-05-23T02:23:55.099Z,8.50
2019-05-23T02:24:55.269Z,8.34
2019-05-23T02:25:55.413Z,8.28
2019-05-23T02:26:55.577Z,8.27
2019-05-23T02:27:56.747Z,8.40
2019-05-23T02:28:55.877Z,8.20
2019-05-23T02:29:56.475Z,8.10
2019-05-23T02:30:56.967Z,7.95
2019-05-23T02:31:56.951Z,7.95
2019-05-23T02:32:56.622Z,7.82
2019-05-23T02:33:56.793Z,7.85
2019-05-23T02:34:57.958Z,7.77
2019-05-23T02:35:58.955Z,7.74
2019-05-23T02:36:57.210Z,7.69
2019-05-23T02:37:57.409Z,7.50
2019-05-23T02:38:57.581Z,7.52
2019-05-23T02:39:57.744Z,7.58
2019-05-23T02:40:58.449Z,7.44
2019-05-23T02:41:58.110Z,7.57
2019-05-23T02:42:58.967Z,7.55
2019-05-23T02:43:58.461Z,7.55
2019-05-23T02:44:58.631Z,7.66
2019-05-23T02:45:58.793Z,7.66
2019-05-23T02:46:58.966Z,7.58
2019-05-23T02:47:59.107Z,7.52
2019-05-23T02:48:59.292Z,7.66
2019-05-23T02:49:59.456Z,7.71
2019-05-23T02:50:59.965Z,7.84
2019-05-23T02:51:59.860Z,7.88
2019-05-23T02:52:59.994Z,7.91
2019-05-23T02:54:00.151Z,7.96
2019-05-23T02:55:00.291Z,7.86
2019-05-23T02:56:00.441Z,7.86
2019-05-23T02:57:00.561Z,7.81
2019-05-23T02:58:00.970Z,7.94
2019-05-23T02:59:00.869Z,7.91
2019-05-23T03:00:01.008Z,7.86
2019-05-23T03:01:01.147Z,7.96
2019-05-23T03:02:01.277Z,7.84
2019-05-23T03:03:01.430Z,7.91
2019-05-23T03:04:02.466Z,8.06
2019-05-23T03:05:01.854Z,8.21
2019-05-23T03:06:02.036Z,8.21
2019-05-23T03:07:02.209Z,8.21
2019-05-23T03:08:02.953Z,8.34
2019-05-23T03:09:03.471Z,8.34
2019-05-23T03:10:02.710Z,8.22
2019-05-23T03:11:02.860Z,8.13
2019-05-23T03:12:03.018Z,8.24
2019-05-23T03:13:03.511Z,8.07
2019-05-23T03:14:03.442Z,8.07
2019-05-23T03:15:04.502Z,7.85
2019-05-23T03:16:05.495Z,7.70
2019-05-23T03:17:04.026Z,7.63
2019-05-23T03:18:04.974Z,7.57
2019-05-23T03:19:04.386Z,7.66
2019-05-23T03:20:05.490Z,7.58
2019-05-23T03:21:04.748Z,7.63
2019-05-23T03:22:04.996Z,7.62
2019-05-23T03:23:05.042Z,7.63
2019-05-23T03:24:05.998Z,7.62
2019-05-23T03:25:05.973Z,7.48
2019-05-23T03:26:05.623Z,7.67
2019-05-23T03:27:05.965Z,7.55
2019-05-23T03:28:06.998Z,7.54
2019-05-23T03:29:06.512Z,7.51
2019-05-23T03:30:06.984Z,7.52
2019-05-23T03:31:26.813Z,7.58
2019-05-23T03:32:09.479Z,7.66
2019-05-23T03:33:06.735Z,7.48
2019-05-23T03:34:06.908Z,7.58
2019-05-23T03:35:07.086Z,7.58
2019-05-23T03:36:07.271Z,7.55
2019-05-23T03:37:07.995Z,7.52
2019-05-23T03:38:07.676Z,7.52
2019-05-23T03:39:08.482Z,7.58
2019-05-23T03:40:08.486Z,7.55
2019-05-23T03:41:08.981Z,7.55
2019-05-23T03:42:08.980Z,7.54
2019-05-23T03:43:09.493Z,7.47
2019-05-23T03:44:08.999Z,7.50
2019-05-23T03:45:09.464Z,7.51
2019-05-23T03:46:09.494Z,7.47
2019-05-23T03:47:10.668Z,7.55
2019-05-23T03:48:09.139Z,7.50
2019-05-23T03:49:09.316Z,7.55
2019-05-23T03:50:09.480Z,7.44
2019-05-23T03:51:09.644Z,7.54
2019-05-23T03:52:10.471Z,7.51
2019-05-23T03:53:09.961Z,7.60
2019-05-23T03:54:10.145Z,7.55
2019-05-23T03:55:12.072Z,7.54
2019-05-23T03:56:10.439Z,7.58
2019-05-23T03:57:10.582Z,7.60
2019-05-23T03:58:10.739Z,7.57
2019-05-23T03:59:10.922Z,7.58
2019-05-23T04:00:11.065Z,7.57
2019-05-23T04:01:11.199Z,7.52
2019-05-23T04:02:11.365Z,7.69
2019-05-23T04:03:11.542Z,7.70
2019-05-23T04:04:11.702Z,7.63
2019-05-23T04:05:11.865Z,7.67
2019-05-23T04:06:12.005Z,7.66
2019-05-23T04:07:12.164Z,7.67
2019-05-23T04:08:13.347Z,7.69
2019-05-23T04:09:12.456Z,7.71
2019-05-23T04:10:12.606Z,7.74
2019-05-23T04:11:12.730Z,7.86
2019-05-23T04:12:12.895Z,7.81
2019-05-23T04:13:13.063Z,7.79
2019-05-23T04:14:13.262Z,7.86
2019-05-23T04:15:13.437Z,7.95
2019-05-23T04:16:13.557Z,8.04
2019-05-23T04:17:13.699Z,8.04
2019-05-23T04:18:13.818Z,8.24
2019-05-23T04:19:13.978Z,8.17
2019-05-23T04:20:14.119Z,8.31
2019-05-23T04:21:14.289Z,8.21
2019-05-23T04:22:14.428Z,8.36
2019-05-23T04:23:14.551Z,8.27
2019-05-23T04:24:14.715Z,8.43
2019-05-23T04:25:14.801Z,8.42
2019-05-23T04:26:14.983Z,8.49
2019-05-23T04:27:15.098Z,8.60
2019-05-23T04:28:15.306Z,8.63
2019-05-23T04:29:15.551Z,8.75
2019-05-23T04:30:15.657Z,8.79
2019-05-23T04:31:15.867Z,8.85
2019-05-23T04:32:16.014Z,8.94
2019-05-23T04:33:16.135Z,8.94
2019-05-23T04:34:16.246Z,8.91
2019-05-23T04:35:16.530Z,8.98
2019-05-23T04:36:16.686Z,8.98
2019-05-23T04:37:16.827Z,9.01
2019-05-23T04:38:16.980Z,8.94
2019-05-23T04:39:17.129Z,9.00
2019-05-23T04:40:17.287Z,9.10
2019-05-23T04:41:17.443Z,9.20
2019-05-23T04:42:17.577Z,9.12
2019-05-23T04:43:17.711Z,9.20
2019-05-23T04:44:17.837Z,9.31
2019-05-23T04:45:17.985Z,9.58
2019-05-23T04:46:18.164Z,9.89
2019-05-23T04:47:18.394Z,9.95
2019-05-23T04:48:18.548Z,10.25
2019-05-23T04:49:18.711Z,10.35
2019-05-23T04:50:18.922Z,10.47
2019-05-23T04:51:19.078Z,10.68
2019-05-23T04:52:19.280Z,10.78
2019-05-23T04:53:19.427Z,10.87
2019-05-23T04:54:19.561Z,11.05
2019-05-23T04:55:19.715Z,11.26
2019-05-23T04:56:19.863Z,11.44
2019-05-23T04:57:20.063Z,11.48
2019-05-23T04:58:20.285Z,11.38
2019-05-23T04:59:20.453Z,11.48
2019-05-23T05:00:20.613Z,11.48
2019-05-23T05:01:20.755Z,11.45
2019-05-23T05:02:26.203Z,11.54
2019-05-23T05:03:23.037Z,11.51
2019-05-23T05:04:21.139Z,11.56
2019-05-23T05:05:21.300Z,11.88
2019-05-23T05:06:21.485Z,12.05
2019-05-23T05:07:21.643Z,12.26
2019-05-23T05:08:21.809Z,12.46
2019-05-23T05:09:22.007Z,12.58
2019-05-23T05:10:22.143Z,12.41
2019-05-23T05:11:22.309Z,12.46
2019-05-23T05:12:22.487Z,12.61
2019-05-23T05:13:23.686Z,12.59
2019-05-23T05:14:22.807Z,12.56
2019-05-23T05:15:22.998Z,12.62
2019-05-23T05:16:23.138Z,12.67
2019-05-23T05:17:23.282Z,12.88
2019-05-23T05:18:23.435Z,13.03
2019-05-23T05:19:23.590Z,12.70
2019-05-23T05:20:23.752Z,12.69
2019-05-23T05:21:23.932Z,13.04
2019-05-23T05:22:24.114Z,13.22
2019-05-23T05:23:24.290Z,13.50
2019-05-23T05:24:24.461Z,13.53
2019-05-23T05:25:24.595Z,13.46
2019-05-23T05:26:24.818Z,13.46
2019-05-23T05:27:24.984Z,13.65
2019-05-23T05:28:25.180Z,13.71
2019-05-23T05:29:25.345Z,13.79
2019-05-23T05:30:25.498Z,13.66
2019-05-23T05:31:25.683Z,13.81
2019-05-23T05:32:41.508Z,13.93
2019-05-23T05:33:26.930Z,13.94
2019-05-23T05:34:26.060Z,13.99
2019-05-23T05:35:26.215Z,13.90
2019-05-23T05:36:26.373Z,14.01
2019-05-23T05:37:26.518Z,14.12
2019-05-23T05:38:28.776Z,14.11
2019-05-23T05:39:27.911Z,14.29
2019-05-23T05:40:27.055Z,14.31
2019-05-23T05:41:27.223Z,14.45
2019-05-23T05:42:27.367Z,14.41
2019-05-23T05:43:27.519Z,14.39
2019-05-23T05:44:27.703Z,14.42
2019-05-23T05:45:27.911Z,14.42
2019-05-23T05:46:28.079Z,14.21
2019-05-23T05:47:28.221Z,14.21
2019-05-23T05:48:28.473Z,14.49
2019-05-23T05:49:28.631Z,14.63
2019-05-23T05:50:28.838Z,14.94
2019-05-23T05:51:28.944Z,15.27
2019-05-23T05:52:29.158Z,15.41
2019-05-23T05:53:29.288Z,15.59
2019-05-23T05:54:29.449Z,15.77
2019-05-23T05:55:29.580Z,15.99
2019-05-23T05:56:29.743Z,15.89
2019-05-23T05:57:29.913Z,16.06
2019-05-23T05:58:30.058Z,16.23
2019-05-23T05:59:30.224Z,16.29
2019-05-23T06:00:30.424Z,16.52
2019-05-23T06:01:34.034Z,16.62
2019-05-23T06:02:31.820Z,16.69
2019-05-23T06:03:30.961Z,16.88
2019-05-23T06:04:31.102Z,16.85
2019-05-23T06:05:31.263Z,16.90
2019-05-23T06:06:31.452Z,16.91
2019-05-23T06:07:31.643Z,16.98
2019-05-23T06:08:31.826Z,17.09
2019-05-23T06:09:32.035Z,17.38
2019-05-23T06:10:32.261Z,17.49
2019-05-23T06:11:32.425Z,17.65
2019-05-23T06:12:32.617Z,17.63
2019-05-23T06:13:33.869Z,17.57
2019-05-23T06:14:32.942Z,17.40
2019-05-23T06:15:33.123Z,17.40
2019-05-23T06:16:33.350Z,17.36
2019-05-23T06:17:33.511Z,17.35
2019-05-23T06:18:33.703Z,17.55
2019-05-23T06:19:33.896Z,17.55
2019-05-23T06:20:34.083Z,17.73
2019-05-23T06:21:34.261Z,17.94
2019-05-23T06:22:34.351Z,18.01
2019-05-23T06:23:34.535Z,18.16
2019-05-23T06:24:44.366Z,18.46
2019-05-23T06:25:36.876Z,18.41
2019-05-23T06:26:34.995Z,18.72
2019-05-23T06:27:35.508Z,18.91
2019-05-23T06:28:36.012Z,19.02
2019-05-23T06:29:35.561Z,19.05
2019-05-23T06:30:36.009Z,19.16
2019-05-23T06:31:36.021Z,19.38
2019-05-23T06:32:37.027Z,19.39
2019-05-23T06:33:37.000Z,19.52
2019-05-23T06:34:36.476Z,19.47
2019-05-23T06:35:37.495Z,19.83
2019-05-23T06:36:36.918Z,20.19
2019-05-23T06:37:37.052Z,20.38
2019-05-23T06:38:37.996Z,20.57
2019-05-23T06:39:37.392Z,20.75
2019-05-23T06:40:37.568Z,20.90
2019-05-23T06:41:37.712Z,21.00
2019-05-23T06:42:37.958Z,21.18
2019-05-23T06:43:39.000Z,21.36
2019-05-23T06:44:38.269Z,21.67
2019-05-23T06:45:38.481Z,21.59
2019-05-23T06:46:38.650Z,21.90
2019-05-23T06:47:38.853Z,22.02
2019-05-23T06:48:45.231Z,22.08
2019-05-23T06:49:40.992Z,22.12
2019-05-23T06:50:39.365Z,22.48
2019-05-23T06:51:39.528Z,22.85
2019-05-23T06:52:40.021Z,22.82
2019-05-23T06:53:39.921Z,23.09
2019-05-23T06:54:41.001Z,23.26
2019-05-23T06:55:40.999Z,23.45
2019-05-23T06:56:41.016Z,23.49
2019-05-23T06:57:40.559Z,23.53
2019-05-23T06:58:40.717Z,23.64
2019-05-23T06:59:40.850Z,23.69
2019-05-23T07:00:41.513Z,23.74
2019-05-23T07:01:41.141Z,23.86
2019-05-23T07:02:42.271Z,23.78
2019-05-23T07:03:43.601Z,23.90
2019-05-23T07:04:43.502Z,23.94
2019-05-23T07:05:42.504Z,24.09
2019-05-23T07:06:42.020Z,24.15
2019-05-23T07:07:42.151Z,24.24
2019-05-23T07:08:42.516Z,24.42
2019-05-23T07:09:42.531Z,24.26
2019-05-23T07:10:42.886Z,24.31
2019-05-23T07:11:43.507Z,24.30
2019-05-23T07:12:43.519Z,24.30
2019-05-23T07:13:43.195Z,24.21
2019-05-23T07:14:43.406Z,24.15
2019-05-23T07:15:44.518Z,24.23
2019-05-23T07:16:44.809Z,24.55
2019-05-23T07:17:43.959Z,24.63
2019-05-23T07:18:44.697Z,24.59
2019-05-23T07:19:44.437Z,24.66
2019-05-23T07:20:45.766Z,24.66
2019-05-23T07:21:44.871Z,24.80
2019-05-23T07:22:45.118Z,24.77
2019-05-23T07:23:45.229Z,24.67
2019-05-23T07:24:57.350Z,24.66
2019-05-23T07:25:47.543Z,24.36
2019-05-23T07:26:45.679Z,24.42
2019-05-23T07:27:45.845Z,24.75
2019-05-23T07:28:46.038Z,24.93
2019-05-23T07:29:46.219Z,25.17
2019-05-23T07:30:46.404Z,25.27
2019-05-23T07:31:46.591Z,25.14
2019-05-23T07:32:46.750Z,25.08
2019-05-23T07:34:01.210Z,25.20
2019-05-23T07:34:49.154Z,25.36
2019-05-23T07:35:47.378Z,25.42
2019-05-23T07:36:48.521Z,25.39
2019-05-23T07:37:47.792Z,25.34
2019-05-23T07:38:47.940Z,25.17
2019-05-23T07:39:48.086Z,25.14
2019-05-23T07:40:48.327Z,25.63
2019-05-23T07:41:48.449Z,25.82
2019-05-23T07:42:48.599Z,25.35
2019-05-23T07:43:48.747Z,24.86
2019-05-23T07:44:48.873Z,24.80
2019-05-23T07:45:49.532Z,24.70
2019-05-23T07:46:49.215Z,24.97
2019-05-23T07:47:49.374Z,24.87
2019-05-23T07:48:49.621Z,25.07
2019-05-23T07:49:49.667Z,24.79
2019-05-23T07:50:49.894Z,24.37
2019-05-23T07:51:50.045Z,24.41
2019-05-23T07:52:51.021Z,24.80
2019-05-23T07:53:50.783Z,25.07
2019-05-23T07:54:50.627Z,24.99
2019-05-23T07:55:50.792Z,24.97
2019-05-23T07:56:50.970Z,24.97
2019-05-23T07:57:51.110Z,24.84
2019-05-23T07:58:51.299Z,24.64
2019-05-23T07:59:51.461Z,24.30
2019-05-23T08:00:51.606Z,24.33
2019-05-23T08:01:51.781Z,24.11
2019-05-23T08:02:51.965Z,24.00
2019-05-23T08:03:54.029Z,24.29
2019-05-23T08:04:52.291Z,24.12
2019-05-23T08:05:52.466Z,24.63
2019-05-23T08:06:52.661Z,24.97
2019-05-23T08:07:52.846Z,25.08
2019-05-23T08:08:53.544Z,25.24
2019-05-23T08:09:53.220Z,25.16
2019-05-23T08:10:53.545Z,25.59
2019-05-23T08:11:53.607Z,25.72
2019-05-23T08:12:54.530Z,25.75
2019-05-23T08:13:54.912Z,25.63
2019-05-23T08:14:54.013Z,25.39
2019-05-23T08:15:55.177Z,25.45
2019-05-23T08:16:54.322Z,25.51
2019-05-23T08:17:54.549Z,25.46
2019-05-23T08:18:55.724Z,25.42
2019-05-23T08:19:54.864Z,25.60
2019-05-23T08:20:56.022Z,25.69
2019-05-23T08:21:56.289Z,25.82
2019-05-23T08:22:55.487Z,26.21
2019-05-23T08:23:56.052Z,26.39
2019-05-23T08:24:57.544Z,25.91
2019-05-23T08:25:56.575Z,25.09
2019-05-23T08:26:56.226Z,25.27
2019-05-23T08:27:56.389Z,25.82
2019-05-23T08:29:22.235Z,26.11
2019-05-23T08:30:01.983Z,26.50
2019-05-23T08:30:57.538Z,26.54
2019-05-23T08:31:57.052Z,26.35
2019-05-23T08:32:57.214Z,25.86
2019-05-23T08:33:57.404Z,25.44
2019-05-23T08:34:57.559Z,25.23
2019-05-23T08:35:58.543Z,25.48
2019-05-23T08:36:57.933Z,25.51
2019-05-23T08:37:58.086Z,25.48
2019-05-23T08:38:58.564Z,25.17
2019-05-23T08:39:58.484Z,24.92
2019-05-23T08:40:59.546Z,25.01
2019-05-23T08:41:59.580Z,25.07
2019-05-23T08:42:59.548Z,25.12
2019-05-23T08:43:59.231Z,25.48
2019-05-23T08:44:59.361Z,25.26
2019-05-23T08:45:59.498Z,25.19
2019-05-23T08:47:00.545Z,25.41
2019-05-23T08:48:00.549Z,25.01
2019-05-23T08:49:00.089Z,24.90
2019-05-23T08:50:01.063Z,25.39
2019-05-23T08:51:01.061Z,25.66
2019-05-23T08:52:00.433Z,25.63
2019-05-23T08:53:00.639Z,25.94
2019-05-23T08:54:00.818Z,25.83
2019-05-23T08:55:00.950Z,26.12
2019-05-23T08:56:02.123Z,26.13
2019-05-23T08:57:02.047Z,26.04
2019-05-23T08:58:02.097Z,25.85
2019-05-23T08:59:01.629Z,25.74
2019-05-23T09:00:01.796Z,25.79
2019-05-23T09:01:01.965Z,25.61
2019-05-23T09:02:02.138Z,25.66
2019-05-23T09:03:03.068Z,25.42
2019-05-23T09:04:02.480Z,25.63
2019-05-23T09:05:06.181Z,25.64
2019-05-23T09:06:04.555Z,25.49
2019-05-23T09:07:03.556Z,25.16
2019-05-23T09:08:03.218Z,24.21
2019-05-23T09:09:03.577Z,24.27
2019-05-23T09:10:03.622Z,24.48
2019-05-23T09:11:04.557Z,24.66
2019-05-23T09:12:04.545Z,24.75
2019-05-23T09:13:05.066Z,23.94
2019-05-23T09:14:04.224Z,24.21
2019-05-23T09:15:04.402Z,24.63
2019-05-23T09:16:04.602Z,24.83
2019-05-23T09:17:04.829Z,24.59
2019-05-23T09:18:04.944Z,24.00
2019-05-23T09:19:05.118Z,24.39
2019-05-23T09:20:05.584Z,24.94
2019-05-23T09:21:05.485Z,24.99
2019-05-23T09:22:05.658Z,25.09
2019-05-23T09:23:05.835Z,25.38
2019-05-23T09:24:06.562Z,25.44
2019-05-23T09:25:07.229Z,25.29
2019-05-23T09:26:07.061Z,25.38
2019-05-23T09:27:07.582Z,25.30
2019-05-23T09:28:06.722Z,25.11
2019-05-23T09:29:06.930Z,24.97
2019-05-23T09:30:07.581Z,24.61
2019-05-23T09:31:07.246Z,24.94
2019-05-23T09:32:07.413Z,25.05
2019-05-23T09:33:07.605Z,25.27
2019-05-23T09:34:08.568Z,25.07
2019-05-23T09:35:20.271Z,25.02
2019-05-23T09:36:10.115Z,25.36
2019-05-23T09:37:09.071Z,25.39
2019-05-23T09:38:08.570Z,25.36
2019-05-23T09:39:08.728Z,24.70
2019-05-23T09:40:08.914Z,24.23
2019-05-23T09:41:09.567Z,24.44
2019-05-23T09:42:12.203Z,24.41
2019-05-23T09:43:10.411Z,24.45
2019-05-23T09:44:10.078Z,24.02
2019-05-23T09:45:10.091Z,23.79
2019-05-23T09:46:09.850Z,23.97
2019-05-23T09:47:10.591Z,24.60
2019-05-23T09:48:10.128Z,24.84
2019-05-23T09:49:11.197Z,24.52
2019-05-23T09:50:12.074Z,24.21
2019-05-23T09:51:11.091Z,24.29
2019-05-23T09:52:12.152Z,24.14
2019-05-23T09:53:11.572Z,23.69
2019-05-23T09:54:11.331Z,23.72
2019-05-23T09:55:11.482Z,23.45
2019-05-23T09:56:12.129Z,23.07
2019-05-23T09:57:12.579Z,22.57
2019-05-23T09:58:12.616Z,22.54
2019-05-23T09:59:14.071Z,22.42
2019-05-23T10:00:13.280Z,22.56
2019-05-23T10:01:12.531Z,22.59
2019-05-23T10:02:12.685Z,22.60
2019-05-23T10:03:13.090Z,22.79
2019-05-23T10:04:13.594Z,23.16
2019-05-23T10:05:14.080Z,23.50
2019-05-23T10:06:13.606Z,23.67
2019-05-23T10:07:14.087Z,23.03
2019-05-23T10:08:13.729Z,22.85
2019-05-23T10:09:13.931Z,23.12
2019-05-23T10:10:14.136Z,23.06
2019-05-23T10:11:14.368Z,22.85
2019-05-23T10:12:14.530Z,23.04
2019-05-23T10:13:14.778Z,23.41
2019-05-23T10:14:14.959Z,23.97
2019-05-23T10:15:15.136Z,24.26
2019-05-23T10:16:15.618Z,24.24
2019-05-23T10:17:16.087Z,24.23
2019-05-23T10:18:15.752Z,24.52
2019-05-23T10:19:15.914Z,24.45
2019-05-23T10:20:16.075Z,24.30
2019-05-23T10:21:16.595Z,24.18
2019-05-23T10:22:16.510Z,23.86
2019-05-23T10:23:16.678Z,23.53
2019-05-23T10:24:16.838Z,22.82
2019-05-23T10:25:17.604Z,22.46
2019-05-23T10:26:17.138Z,22.52
2019-05-23T10:27:17.329Z,22.78
2019-05-23T10:28:18.121Z,23.23
2019-05-23T10:29:17.706Z,23.50
2019-05-23T10:30:18.611Z,23.84
2019-05-23T10:31:18.005Z,24.02
2019-05-23T10:32:18.600Z,24.42
2019-05-23T10:33:18.365Z,24.24
2019-05-23T10:34:19.086Z,23.75
2019-05-23T10:35:19.611Z,23.35
2019-05-23T10:36:19.621Z,23.11
2019-05-23T10:37:19.105Z,22.89
2019-05-23T10:38:19.686Z,22.79
2019-05-23T10:39:20.095Z,22.66
2019-05-23T10:40:19.489Z,22.66
2019-05-23T10:41:19.657Z,22.61
2019-05-23T10:42:20.587Z,22.82
2019-05-23T10:43:20.106Z,23.47
2019-05-23T10:44:20.175Z,23.68
2019-05-23T10:45:21.091Z,23.74
2019-05-23T10:46:21.522Z,23.68
2019-05-23T10:47:20.659Z,23.64
2019-05-23T10:48:21.880Z,23.86
2019-05-23T10:49:21.601Z,24.24
2019-05-23T10:50:22.109Z,24.68
2019-05-23T10:51:21.350Z,24.79
2019-05-23T10:52:21.532Z,24.98
2019-05-23T10:53:22.118Z,25.24
2019-05-23T10:54:22.101Z,25.39
2019-05-23T10:55:23.099Z,24.83
2019-05-23T10:56:23.108Z,24.68
2019-05-23T10:57:23.098Z,24.60
2019-05-23T10:58:23.112Z,24.44
2019-05-23T10:59:23.606Z,24.21
2019-05-23T11:00:22.966Z,24.06
2019-05-23T11:01:23.181Z,24.08
2019-05-23T11:02:26.975Z,24.08
2019-05-23T11:03:23.579Z,23.67
2019-05-23T11:04:24.122Z,23.12
2019-05-23T11:05:24.601Z,23.18
2019-05-23T11:06:24.612Z,23.23
2019-05-23T11:07:25.106Z,23.37
2019-05-23T11:08:29.333Z,23.42
2019-05-23T11:09:37.197Z,23.69
2019-05-23T11:10:26.698Z,24.05
2019-05-23T11:11:25.622Z,24.44
2019-05-23T11:12:26.162Z,24.53
2019-05-23T11:13:25.300Z,24.51
2019-05-23T11:14:25.644Z,24.23
2019-05-23T11:15:26.621Z,23.94
2019-05-23T11:16:25.886Z,23.79
2019-05-23T11:17:26.048Z,23.74
2019-05-23T11:18:26.247Z,23.78
2019-05-23T11:19:26.633Z,23.86
2019-05-23T11:20:26.568Z,23.69
2019-05-23T11:21:26.762Z,23.97
2019-05-23T11:22:26.931Z,24.21
2019-05-23T11:23:27.146Z,24.53
2019-05-23T11:24:27.668Z,24.61
2019-05-23T11:25:28.167Z,24.92
2019-05-23T11:26:27.568Z,24.86
2019-05-23T11:27:28.610Z,24.94
2019-05-23T11:28:27.873Z,25.14
2019-05-23T11:29:28.626Z,25.22
2019-05-23T11:30:28.154Z,24.89
2019-05-23T11:31:28.313Z,24.97
2019-05-23T11:32:29.125Z,25.08
2019-05-23T11:33:28.668Z,25.09
2019-05-23T11:34:29.621Z,25.35
2019-05-23T11:35:28.990Z,25.53
2019-05-23T11:36:35.630Z,25.66
2019-05-23T11:37:31.294Z,25.57
2019-05-23T11:38:30.113Z,25.48
2019-05-23T11:39:29.731Z,25.16
2019-05-23T11:40:33.502Z,24.80
2019-05-23T11:41:30.039Z,24.86
2019-05-23T11:42:30.281Z,25.07
2019-05-23T11:43:30.423Z,25.24
2019-05-23T11:44:31.120Z,25.44
2019-05-23T11:45:31.130Z,25.45
2019-05-23T11:46:30.868Z,25.23
2019-05-23T11:47:32.293Z,25.12
2019-05-23T11:48:33.131Z,24.87
2019-05-23T11:49:31.371Z,24.99
2019-05-23T11:50:31.551Z,25.01
2019-05-23T11:51:31.708Z,24.87
2019-05-23T11:52:32.621Z,24.71
2019-05-23T11:53:32.044Z,24.31
2019-05-23T11:54:32.189Z,24.29
2019-05-23T11:55:33.176Z,24.55
2019-05-23T11:56:32.564Z,24.33
2019-05-23T11:57:32.720Z,24.34
2019-05-23T11:58:33.143Z,24.74
2019-05-23T11:59:33.612Z,25.11
2019-05-23T12:00:34.319Z,25.44
2019-05-23T12:01:34.119Z,25.53
2019-05-23T12:02:34.622Z,25.49
2019-05-23T12:03:34.157Z,25.76
2019-05-23T12:04:34.631Z,25.14
2019-05-23T12:05:35.139Z,25.08
2019-05-23T12:06:51.714Z,24.97
2019-05-23T12:07:36.639Z,24.99
2019-05-23T12:08:35.153Z,24.79
2019-05-23T12:09:35.034Z,24.80
2019-05-23T12:10:35.209Z,24.89
2019-05-23T12:11:41.931Z,24.75
2019-05-23T12:12:37.621Z,24.79
2019-05-23T12:13:35.720Z,24.70
2019-05-23T12:14:35.866Z,24.93
2019-05-23T12:15:36.079Z,24.97
2019-05-23T12:16:36.375Z,24.84
2019-05-23T12:17:36.449Z,24.79
2019-05-23T12:18:36.617Z,24.75
2019-05-23T12:19:36.793Z,24.84
2019-05-23T12:20:36.972Z,24.92
2019-05-23T12:21:37.633Z,25.04
2019-05-23T12:22:37.686Z,24.67
2019-05-23T12:23:37.517Z,24.63
2019-05-23T12:24:38.671Z,24.87
2019-05-23T12:25:38.638Z,24.99
2019-05-23T12:26:38.011Z,25.01
2019-05-23T12:27:38.273Z,24.87
2019-05-23T12:28:39.144Z,24.82
2019-05-23T12:29:38.431Z,24.84
2019-05-23T12:30:39.139Z,25.04
2019-05-23T12:31:39.646Z,25.17
2019-05-23T12:32:38.913Z,25.19
2019-05-23T12:33:39.076Z,25.24
2019-05-23T12:34:39.232Z,25.53
2019-05-23T12:35:39.404Z,25.69
2019-05-23T12:36:39.553Z,25.86
2019-05-23T12:37:40.644Z,25.93
2019-05-23T12:38:40.939Z,25.83
2019-05-23T12:39:40.645Z,25.57
2019-05-23T12:40:41.153Z,25.39
2019-05-23T12:41:40.403Z,25.39
2019-05-23T12:42:41.141Z,25.53
2019-05-23T12:43:40.782Z,25.48
2019-05-23T12:44:40.921Z,25.42
2019-05-23T12:45:41.643Z,25.19
2019-05-23T12:46:41.273Z,25.31
2019-05-23T12:47:41.453Z,25.49
2019-05-23T12:48:41.648Z,25.54
2019-05-23T12:49:41.807Z,25.54
2019-05-23T12:50:42.643Z,25.42
2019-05-23T12:51:43.153Z,25.56
2019-05-23T12:52:42.313Z,25.19
2019-05-23T12:53:42.453Z,25.11
2019-05-23T12:54:42.650Z,24.99
2019-05-23T12:55:42.806Z,25.23
2019-05-23T12:56:48.324Z,25.49
2019-05-23T12:57:44.138Z,25.76
2019-05-23T12:58:44.166Z,25.69
2019-05-23T12:59:43.649Z,25.39
2019-05-23T13:00:43.548Z,25.09
2019-05-23T13:01:45.662Z,25.17
2019-05-23T13:02:44.679Z,25.36
2019-05-23T13:03:44.071Z,25.35